Time;durP1;ratioP1;P1;durP2;ratioP2;P2;SDS_P1;SDS_P2;PMS_P1;PMS_P2;Temp;Humidity;BMP_temperature;BMP_pressure;BME280_temperature;BME280_humidity;BME280_pressure;Samples;Min_cycle;Max_cycle;Signal;HPM_P1;HPM_P2
2022/01/05 00:00:34;;;;;;;100.57;86.00;;;5.10;99.90;;;;;;6100413;23;20154;-83
2022/01/05 00:03:00;;;;;;;100.83;85.80;;;5.10;99.90;;;;;;6126356;23;20146;-83
2022/01/05 00:05:26;;;;;;;90.28;72.43;;;5.00;99.90;;;;;;6126927;23;20406;-82
2022/01/05 00:07:52;;;;;;;90.10;72.37;;;4.90;99.90;;;;;;6126726;23;20147;-82
2022/01/05 00:10:18;;;;;;;101.43;88.23;;;4.90;99.90;;;;;;6127589;23;20166;-82
2022/01/05 00:12:43;;;;;;;126.67;114.73;;;4.80;99.90;;;;;;6127285;23;20635;-82
2022/01/05 00:15:09;;;;;;;128.90;116.47;;;4.70;99.90;;;;;;6127551;23;20504;-82
2022/01/05 00:17:35;;;;;;;111.13;99.93;;;4.60;99.90;;;;;;6100801;23;20226;-82
2022/01/05 00:20:02;;;;;;;120.83;108.90;;;4.60;99.90;;;;;;6100537;23;20391;-82
2022/01/05 00:22:28;;;;;;;111.75;100.40;;;4.50;99.90;;;;;;6101649;23;20422;-82
2022/01/05 00:24:53;;;;;;;120.77;109.30;;;4.60;99.90;;;;;;6126734;23;20181;-82
2022/01/05 00:27:19;;;;;;;103.80;92.80;;;4.60;99.90;;;;;;6126685;23;20213;-82
2022/01/05 00:29:44;;;;;;;139.47;127.33;;;4.60;99.90;;;;;;6100727;23;20174;-82
2022/01/05 00:32:10;;;;;;;93.60;81.33;;;4.60;99.90;;;;;;6126995;23;20139;-82
2022/01/05 00:34:36;;;;;;;109.83;98.77;;;4.60;99.90;;;;;;6126875;23;20167;-82
2022/01/05 00:37:02;;;;;;;131.02;119.20;;;4.60;99.90;;;;;;6100298;23;20378;-82
2022/01/05 00:39:28;;;;;;;110.28;99.13;;;4.70;99.90;;;;;;6100263;23;20157;-81
2022/01/05 00:41:54;;;;;;;111.80;100.40;;;4.80;99.90;;;;;;6127008;23;20146;-82
2022/01/05 00:44:20;;;;;;;106.53;95.60;;;4.90;99.90;;;;;;6125989;23;20781;-82
2022/01/05 00:46:46;;;;;;;100.90;90.20;;;4.90;99.90;;;;;;6100879;23;20596;-82
2022/01/05 00:49:13;;;;;;;122.13;110.00;;;4.90;99.90;;;;;;6126119;23;20139;-82
2022/01/05 00:51:38;;;;;;;100.13;88.63;;;4.90;99.90;;;;;;6126349;23;20170;-82
2022/01/05 00:54:05;;;;;;;94.87;82.00;;;4.90;99.90;;;;;;6126715;23;20656;-82
2022/01/05 00:56:31;;;;;;;92.35;78.88;;;4.90;99.90;;;;;;6126710;23;20461;-82
2022/01/05 00:58:57;;;;;;;86.23;60.50;;;4.90;99.90;;;;;;6126417;23;20481;-82
2022/01/05 01:01:23;;;;;;;89.30;68.40;;;4.80;99.90;;;;;;6126551;23;20150;-82
2022/01/05 01:03:48;;;;;;;83.73;52.37;;;4.80;99.90;;;;;;6125501;23;20179;-81
2022/01/05 01:06:15;;;;;;;87.47;62.33;;;4.90;99.90;;;;;;6126985;23;20146;-81
2022/01/05 01:08:40;;;;;;;88.63;58.80;;;4.90;99.90;;;;;;6125631;23;20170;-82
2022/01/05 01:11:06;;;;;;;89.17;67.33;;;5.00;99.90;;;;;;6126484;23;20150;-81
2022/01/05 01:13:33;;;;;;;90.53;62.80;;;5.10;99.90;;;;;;6100069;23;20511;-81
2022/01/05 01:15:58;;;;;;;84.95;51.75;;;5.10;99.90;;;;;;6125349;23;20268;-81
2022/01/05 01:18:24;;;;;;;86.00;55.10;;;5.20;99.90;;;;;;6125953;23;20154;-80
2022/01/05 01:20:50;;;;;;;84.68;47.33;;;5.20;99.90;;;;;;6125615;23;20155;-81
2022/01/05 01:23:22;;;;;;;85.83;55.13;;;5.10;99.90;;;;;;6100029;23;20606;-80
2022/01/05 01:25:52;;;;;;;88.90;60.17;;;5.10;99.90;;;;;;6099604;23;20848;-81
2022/01/05 01:28:18;;;;;;;90.18;57.72;;;5.20;99.90;;;;;;6125773;23;20143;-81
2022/01/05 01:30:44;;;;;;;84.77;52.40;;;5.10;99.90;;;;;;6125718;23;20159;-81
2022/01/05 01:33:10;;;;;;;88.05;56.75;;;5.20;99.90;;;;;;6127195;23;20757;-81
2022/01/05 01:35:35;;;;;;;93.37;73.20;;;5.10;99.90;;;;;;6130030;23;20159;-81
2022/01/05 01:38:01;;;;;;;93.80;73.10;;;5.10;99.90;;;;;;6103960;23;20146;-81
2022/01/05 01:40:27;;;;;;;99.67;76.00;;;5.10;99.90;;;;;;6129097;23;20170;-81
2022/01/05 01:42:52;;;;;;;95.00;74.87;;;5.10;99.90;;;;;;6103547;23;20222;-81
2022/01/05 01:45:19;;;;;;;93.20;68.83;;;5.20;99.90;;;;;;6128756;23;20182;-81
2022/01/05 01:47:46;;;;;;;91.25;70.13;;;5.20;99.90;;;;;;6128835;23;20234;-80
2022/01/05 01:50:12;;;;;;;108.25;97.20;;;5.20;99.90;;;;;;6102242;23;20199;-81
2022/01/05 01:52:38;;;;;;;96.97;82.10;;;5.20;99.90;;;;;;6103423;23;20158;-80
2022/01/05 01:55:04;;;;;;;94.57;72.20;;;5.30;99.90;;;;;;6102459;23;20394;-81
2022/01/05 01:57:34;;;;;;;99.47;88.30;;;5.20;99.90;;;;;;6128823;23;20703;-81
2022/01/05 02:00:00;;;;;;;106.18;94.63;;;5.30;99.90;;;;;;6102792;23;20503;-81
2022/01/05 02:02:26;;;;;;;106.88;94.80;;;5.30;99.90;;;;;;6128815;23;20221;-81
2022/01/05 02:04:52;;;;;;;94.03;67.27;;;5.20;99.90;;;;;;6128234;23;20183;-81
2022/01/05 02:07:17;;;;;;;98.00;83.57;;;5.20;99.90;;;;;;6129494;23;20139;-81
2022/01/05 02:09:43;;;;;;;107.37;96.37;;;5.10;99.90;;;;;;6102920;23;20151;-81
2022/01/05 02:12:10;;;;;;;98.00;86.17;;;5.20;99.90;;;;;;6129136;23;20138;-81
2022/01/05 02:14:36;;;;;;;130.15;117.22;;;5.10;99.90;;;;;;6128116;23;20166;-81
2022/01/05 02:17:11;;;;;;;117.67;106.00;;;4.90;99.90;;;;;;6128170;23;20181;-81
2022/01/05 02:19:36;;;;;;;97.78;82.80;;;4.70;99.90;;;;;;6128060;23;20428;-81
2022/01/05 02:22:03;;;;;;;97.47;76.00;;;4.60;99.90;;;;;;6128475;23;20154;-81
2022/01/05 02:24:29;;;;;;;95.53;66.78;;;4.50;99.90;;;;;;6127414;23;20186;-81
2022/01/05 02:26:54;;;;;;;94.40;78.43;;;4.50;99.90;;;;;;6102864;23;20146;-81
2022/01/05 02:29:21;;;;;;;93.33;70.63;;;4.40;99.90;;;;;;6128155;23;20143;-81
2022/01/05 02:31:47;;;;;;;85.53;55.25;;;4.40;99.90;;;;;;6127822;23;20669;-81
2022/01/05 02:34:17;;;;;;;85.05;49.80;;;4.40;99.90;;;;;;6102918;23;20174;-81
2022/01/05 02:36:43;;;;;;;92.00;63.58;;;4.40;99.90;;;;;;6103053;23;20154;-81
2022/01/05 02:39:08;;;;;;;85.47;50.67;;;4.40;99.90;;;;;;6128875;23;20153;-81
2022/01/05 02:41:34;;;;;;;94.97;67.20;;;4.40;99.90;;;;;;6128949;23;20371;-81
2022/01/05 02:44:00;;;;;;;98.67;76.37;;;4.40;99.90;;;;;;6127483;23;20240;-81
2022/01/05 02:46:26;;;;;;;176.38;161.07;;;4.40;99.90;;;;;;6126264;23;20171;-81
2022/01/05 02:48:54;;;;;;;92.83;62.97;;;4.40;99.90;;;;;;6126458;23;20197;-81
2022/01/05 02:51:20;;;;;;;109.40;96.35;;;4.30;99.90;;;;;;6125533;23;20142;-81
2022/01/05 02:53:46;;;;;;;93.30;68.47;;;4.30;99.90;;;;;;6126168;23;20166;-81
2022/01/05 02:56:12;;;;;;;95.37;75.07;;;4.30;99.90;;;;;;6100938;23;20402;-81
2022/01/05 02:58:38;;;;;;;92.65;65.28;;;4.30;99.90;;;;;;6125925;23;20367;-81
2022/01/05 03:01:04;;;;;;;100.95;82.72;;;4.30;99.90;;;;;;6126110;23;20166;-81
2022/01/05 03:03:30;;;;;;;98.50;74.30;;;4.30;99.90;;;;;;6125810;23;20162;-81
2022/01/05 03:05:56;;;;;;;98.07;68.00;;;4.20;99.90;;;;;;6101004;23;20608;-81
2022/01/05 03:08:22;;;;;;;101.43;78.87;;;4.20;99.90;;;;;;6101182;23;20149;-81
2022/01/05 03:10:48;;;;;;;100.65;83.32;;;4.20;99.90;;;;;;6100167;23;20587;-81
2022/01/05 03:13:14;;;;;;;106.68;85.43;;;4.20;99.90;;;;;;6126555;23;20143;-80
2022/01/05 03:15:40;;;;;;;104.78;93.40;;;4.10;99.90;;;;;;6100349;23;20465;-81
2022/01/05 03:18:07;;;;;;;93.40;73.90;;;4.10;99.90;;;;;;6126453;23;20161;-81
2022/01/05 03:20:34;;;;;;;100.25;75.25;;;4.00;99.90;;;;;;6126095;23;20149;-81
2022/01/05 03:23:01;;;;;;;102.10;80.97;;;4.10;99.90;;;;;;6100401;23;20170;-81
2022/01/05 03:25:27;;;;;;;118.88;106.85;;;4.00;99.90;;;;;;6100254;23;20233;-81
2022/01/05 03:27:54;;;;;;;95.77;66.87;;;3.90;99.90;;;;;;6127525;23;20206;-81
2022/01/05 03:30:25;;;;;;;102.60;77.70;;;3.90;99.90;;;;;;6100324;23;20371;-81
2022/01/05 03:35:28;;;;;;;95.50;74.68;;;3.90;99.90;;;;;;6126579;23;20162;-81
2022/01/05 03:37:53;;;;;;;114.05;102.10;;;3.90;99.90;;;;;;6126208;23;20138;-81
2022/01/05 03:40:19;;;;;;;93.10;68.50;;;3.90;99.90;;;;;;6125520;23;20167;-81
2022/01/05 03:42:45;;;;;;;95.93;68.03;;;3.80;99.90;;;;;;6125769;23;20142;-81
2022/01/05 03:45:10;;;;;;;93.60;72.00;;;3.80;99.90;;;;;;6100557;23;20179;-81
2022/01/05 03:47:36;;;;;;;93.10;69.60;;;3.90;99.90;;;;;;6126410;23;20201;-81
2022/01/05 03:50:03;;;;;;;94.90;75.60;;;3.90;99.90;;;;;;6126224;23;20147;-81
2022/01/05 03:52:28;;;;;;;92.88;74.80;;;3.90;99.90;;;;;;6126607;23;20620;-82
2022/01/05 03:54:54;;;;;;;96.83;80.37;;;3.90;99.90;;;;;;6125723;23;20170;-81
2022/01/05 03:57:20;;;;;;;92.40;69.63;;;3.90;99.90;;;;;;6126297;23;20596;-81
2022/01/05 03:59:46;;;;;;;92.17;55.63;;;3.90;99.90;;;;;;6099713;23;20158;-81
2022/01/05 04:02:11;;;;;;;95.33;67.57;;;3.80;99.90;;;;;;6100721;23;20413;-81
2022/01/05 04:04:37;;;;;;;98.73;79.30;;;3.90;99.90;;;;;;6125466;23;20187;-81
2022/01/05 04:07:03;;;;;;;94.07;63.77;;;3.90;99.90;;;;;;6099915;23;20592;-82
2022/01/05 04:09:29;;;;;;;95.90;67.28;;;3.90;99.90;;;;;;6125716;23;20146;-81
2022/01/05 04:11:55;;;;;;;98.78;79.40;;;3.80;99.90;;;;;;6126498;23;20592;-81
2022/01/05 04:14:21;;;;;;;90.57;58.47;;;3.80;99.90;;;;;;6101207;23;20177;-82
2022/01/05 04:16:47;;;;;;;89.80;53.67;;;3.80;99.90;;;;;;6100368;23;20763;-81
2022/01/05 04:19:12;;;;;;;105.50;76.87;;;3.80;99.90;;;;;;6126313;23;20174;-82
2022/01/05 04:21:38;;;;;;;98.37;60.73;;;3.70;99.90;;;;;;6126013;23;20201;-81
2022/01/05 04:24:04;;;;;;;93.50;68.83;;;3.70;99.90;;;;;;6125418;23;20178;-81
2022/01/05 04:26:30;;;;;;;90.55;63.05;;;3.70;99.90;;;;;;6126046;23;20531;-81
2022/01/05 04:28:55;;;;;;;91.90;71.63;;;3.70;99.90;;;;;;6126441;23;20139;-82
2022/01/05 04:31:21;;;;;;;88.20;51.37;;;3.80;99.90;;;;;;6126216;23;20476;-82
2022/01/05 04:33:48;;;;;;;92.55;56.15;;;3.70;99.90;;;;;;6125467;23;20199;-82
2022/01/05 04:36:13;;;;;;;90.80;55.73;;;3.70;99.90;;;;;;6126027;23;20201;-82
2022/01/05 04:38:39;;;;;;;83.73;47.60;;;3.70;99.90;;;;;;6100091;23;20151;-82
2022/01/05 04:41:05;;;;;;;90.13;63.37;;;3.70;99.90;;;;;;6125665;23;20154;-82
2022/01/05 04:43:31;;;;;;;91.10;62.93;;;3.70;99.90;;;;;;6125779;23;20224;-82
2022/01/05 04:45:56;;;;;;;101.03;58.37;;;3.70;99.90;;;;;;6126503;23;20143;-82
2022/01/05 04:48:22;;;;;;;89.40;47.33;;;3.70;99.90;;;;;;6125876;23;20445;-82
2022/01/05 04:50:48;;;;;;;85.65;50.53;;;3.60;99.90;;;;;;6100281;23;20526;-82
2022/01/05 04:53:14;;;;;;;81.77;41.17;;;3.60;99.90;;;;;;6126466;23;20218;-82
2022/01/05 04:55:41;;;;;;;84.97;47.17;;;3.60;99.90;;;;;;6125745;23;20401;-82
2022/01/05 04:58:07;;;;;;;102.78;52.08;;;3.60;99.90;;;;;;6099935;23;20161;-82
2022/01/05 05:00:32;;;;;;;82.20;45.28;;;3.60;99.90;;;;;;6125867;23;20158;-82
2022/01/05 05:02:58;;;;;;;85.80;53.27;;;3.60;99.90;;;;;;6126223;23;20536;-82
2022/01/05 05:05:24;;;;;;;83.63;47.83;;;3.70;99.90;;;;;;6125574;23;20260;-82
2022/01/05 05:07:50;;;;;;;80.30;37.63;;;3.60;99.90;;;;;;6099258;23;20142;-82
2022/01/05 05:10:15;;;;;;;89.70;61.07;;;3.60;99.90;;;;;;6125139;23;20169;-82
2022/01/05 05:12:41;;;;;;;84.60;42.43;;;3.70;99.90;;;;;;6126281;23;20189;-82
2022/01/05 05:15:07;;;;;;;85.27;47.30;;;3.60;99.90;;;;;;6100517;23;20632;-83
2022/01/05 05:17:33;;;;;;;83.38;40.53;;;3.60;99.90;;;;;;6125932;23;20237;-83
2022/01/05 05:19:58;;;;;;;82.90;39.47;;;3.60;99.90;;;;;;6125967;23;20143;-82
2022/01/05 05:22:24;;;;;;;84.90;49.27;;;3.60;99.90;;;;;;6099657;23;20386;-83
2022/01/05 05:24:50;;;;;;;90.90;55.67;;;3.60;99.90;;;;;;6125478;23;20253;-83
2022/01/05 05:27:15;;;;;;;82.67;45.90;;;3.60;99.90;;;;;;6099422;23;20151;-82
2022/01/05 05:29:41;;;;;;;88.73;50.90;;;3.50;99.90;;;;;;6099422;23;20205;-82
2022/01/05 05:32:07;;;;;;;89.73;49.67;;;3.50;99.90;;;;;;6125559;23;20147;-83
2022/01/05 05:34:33;;;;;;;85.60;48.17;;;3.50;99.90;;;;;;6125035;23;20217;-82
2022/01/05 05:36:59;;;;;;;85.50;56.30;;;3.50;99.90;;;;;;6125318;23;20147;-83
2022/01/05 05:39:24;;;;;;;88.93;57.10;;;3.50;99.90;;;;;;6125681;23;20374;-82
2022/01/05 05:41:50;;;;;;;91.83;50.93;;;3.50;99.90;;;;;;6125459;23;20492;-82
2022/01/05 05:44:16;;;;;;;92.83;64.73;;;3.40;99.90;;;;;;6125443;23;20196;-83
2022/01/05 05:46:42;;;;;;;83.73;45.07;;;3.40;99.90;;;;;;6099357;23;20644;-82
2022/01/05 05:49:07;;;;;;;84.60;50.53;;;3.40;99.90;;;;;;6098814;23;20153;-82
2022/01/05 05:51:33;;;;;;;86.30;44.20;;;3.40;99.90;;;;;;6125291;23;20759;-82
2022/01/05 05:53:59;;;;;;;87.80;52.30;;;3.30;99.90;;;;;;6125141;23;20474;-82
2022/01/05 05:56:25;;;;;;;87.60;54.77;;;3.40;99.90;;;;;;6125149;23;20147;-82
2022/01/05 05:58:51;;;;;;;82.40;39.35;;;3.40;99.90;;;;;;6099966;23;20159;-82
2022/01/05 06:01:16;;;;;;;92.20;55.83;;;3.50;99.90;;;;;;6124903;23;20230;-82
2022/01/05 06:03:42;;;;;;;89.67;51.40;;;3.40;99.90;;;;;;6125131;23;20209;-82
2022/01/05 06:06:08;;;;;;;84.77;43.63;;;3.40;99.90;;;;;;6099162;23;20154;-82
2022/01/05 06:08:33;;;;;;;81.53;39.67;;;3.40;99.90;;;;;;6125350;23;20167;-83
2022/01/05 06:10:59;;;;;;;86.43;49.73;;;3.40;99.90;;;;;;6125073;23;20476;-83
2022/01/05 06:13:24;;;;;;;87.20;44.00;;;3.40;99.90;;;;;;6125338;23;20138;-82
2022/01/05 06:15:50;;;;;;;85.83;45.63;;;3.50;99.90;;;;;;6125056;23;20147;-82
2022/01/05 06:18:16;;;;;;;86.70;36.53;;;3.50;99.90;;;;;;6098764;23;20166;-82
2022/01/05 06:20:41;;;;;;;79.33;27.73;;;3.40;99.90;;;;;;6100231;23;20159;-82
2022/01/05 06:23:07;;;;;;;86.57;37.83;;;3.40;99.90;;;;;;6099939;23;20147;-82
2022/01/05 06:25:33;;;;;;;83.70;42.73;;;3.30;99.90;;;;;;6126040;23;20639;-82
2022/01/05 06:27:58;;;;;;;107.77;60.53;;;3.30;99.90;;;;;;6100414;23;20619;-82
2022/01/05 06:30:24;;;;;;;89.33;50.50;;;3.30;99.90;;;;;;6100431;23;20147;-82
2022/01/05 06:32:50;;;;;;;82.17;41.17;;;3.30;99.90;;;;;;6126551;23;20142;-82
2022/01/05 06:35:23;;;;;;;88.27;49.47;;;3.40;99.90;;;;;;6100079;23;20257;-82
2022/01/05 06:37:50;;;;;;;83.20;46.20;;;3.40;99.90;;;;;;6126155;23;20131;-82
2022/01/05 06:40:16;;;;;;;88.20;47.58;;;3.40;99.90;;;;;;6100942;23;20150;-82
2022/01/05 06:42:42;;;;;;;85.17;46.63;;;3.40;99.90;;;;;;6100781;23;20174;-82
2022/01/05 06:45:08;;;;;;;84.67;45.43;;;3.50;99.90;;;;;;6126487;23;20178;-82
2022/01/05 06:47:34;;;;;;;85.72;43.70;;;3.50;99.90;;;;;;6126835;23;20370;-82
2022/01/05 06:49:59;;;;;;;84.50;41.07;;;3.50;99.90;;;;;;6127034;23;20221;-82
2022/01/05 06:52:25;;;;;;;82.13;42.83;;;3.50;99.90;;;;;;6126425;23;20143;-82
2022/01/05 06:54:51;;;;;;;90.53;57.80;;;3.50;99.90;;;;;;6125805;23;20206;-82
2022/01/05 06:57:17;;;;;;;90.78;52.88;;;3.40;99.90;;;;;;6100970;23;20158;-82
2022/01/05 06:59:42;;;;;;;89.27;53.97;;;3.40;99.90;;;;;;6100230;23;20213;-82
2022/01/05 07:02:08;;;;;;;86.10;44.77;;;3.40;99.90;;;;;;6126582;23;20150;-82
2022/01/05 07:04:37;;;;;;;85.90;48.27;;;3.40;99.90;;;;;;6125670;23;20232;-82
2022/01/05 07:07:03;;;;;;;84.13;43.92;;;3.40;99.90;;;;;;6100462;23;20147;-82
2022/01/05 07:09:28;;;;;;;90.88;52.58;;;3.40;99.90;;;;;;6126894;23;20143;-82
2022/01/05 07:11:54;;;;;;;93.40;55.30;;;3.40;99.90;;;;;;6126252;23;20208;-82
2022/01/05 07:14:23;;;;;;;88.63;56.47;;;3.50;99.90;;;;;;6126523;23;20189;-82
2022/01/05 07:16:50;;;;;;;90.88;59.00;;;3.50;99.90;;;;;;6121952;23;20139;-76
2022/01/05 07:19:20;;;;;;;91.57;61.08;;;3.50;99.90;;;;;;6125846;23;20159;-85
2022/01/05 07:21:49;;;;;;;99.90;64.40;;;3.40;99.90;;;;;;6125222;23;20142;-86
2022/01/05 07:24:27;;;;;;;93.95;55.70;;;3.40;99.90;;;;;;6098530;23;20186;-86
2022/01/05 07:27:16;;;;;;;111.28;98.97;;;3.30;99.90;;;;;;6099062;23;20469;-87
2022/01/05 07:29:47;;;;;;;96.75;64.50;;;3.30;99.90;;;;;;6098642;23;20150;-84
2022/01/05 07:32:14;;;;;;;89.28;53.75;;;3.30;99.90;;;;;;6100051;23;20147;-85
2022/01/05 07:34:46;;;;;;;92.57;50.88;;;3.40;99.90;;;;;;6097106;23;20174;-85
2022/01/05 07:37:27;;;;;;;97.72;60.85;;;3.40;99.90;;;;;;6125949;23;20230;-85
2022/01/05 07:40:14;;;;;;;96.05;63.95;;;3.50;99.90;;;;;;6099087;23;20658;-85
2022/01/05 07:43:05;;;;;;;97.32;50.72;;;3.50;99.90;;;;;;6100027;23;20584;-88
2022/01/05 07:45:49;;;;;;;92.70;53.88;;;3.60;99.90;;;;;;6064128;23;20533;-85
2022/01/05 07:51:51;;;;;;;85.90;46.30;;;3.60;99.90;;;;;;6016815;23;20162;-87
2022/01/05 07:54:35;;;;;;;98.75;65.85;;;3.60;99.90;;;;;;6062974;23;20176;-87
2022/01/05 07:57:02;;;;;;;93.70;53.13;;;3.50;99.90;;;;;;6063492;23;20194;-87
2022/01/05 07:59:29;;;;;;;100.18;73.30;;;3.50;99.90;;;;;;6038629;23;20159;-87
2022/01/05 08:02:32;;;;;;;91.88;69.70;;;3.60;99.90;;;;;;6063858;23;20640;-87
2022/01/05 08:05:07;;;;;;;91.00;54.35;;;3.60;99.90;;;;;;6095787;23;20186;-87
2022/01/05 08:07:42;;;;;;;112.93;95.55;;;3.70;99.90;;;;;;6098117;23;20146;-88
2022/01/05 08:10:37;;;;;;;90.82;61.38;;;3.70;99.90;;;;;;6099507;23;20180;-87
2022/01/05 08:13:04;;;;;;;87.22;57.95;;;3.70;99.90;;;;;;6096498;23;20222;-86
2022/01/05 08:15:31;;;;;;;89.65;56.67;;;3.70;99.90;;;;;;6105449;23;20490;-86
2022/01/05 08:18:34;;;;;;;98.88;60.60;;;3.70;99.90;;;;;;6124364;23;20161;-87
2022/01/05 08:21:24;;;;;;;92.85;49.50;;;3.70;99.90;;;;;;6090475;23;20155;-86
2022/01/05 08:23:59;;;;;;;99.57;60.78;;;3.70;99.90;;;;;;6096915;23;20187;-87
2022/01/05 08:30:35;;;;;;;;;;;;;;;;;;;;;
2022/01/05 08:37:22;;;;;;;92.88;51.13;;;3.80;99.90;;;;;;6123765;23;20138;-87
2022/01/05 08:44:20;;;;;;;104.93;90.18;;;3.80;99.90;;;;;;6126063;23;20154;-87
2022/01/05 08:47:15;;;;;;;87.30;57.58;;;3.90;99.90;;;;;;6037471;23;20158;-88
2022/01/05 09:03:59;;;;;;;84.10;48.92;;;4.00;99.90;;;;;;5920747;24;20274;-88
2022/01/05 09:07:04;;;;;;;;;;;;;;;;;;;;;
2022/01/05 09:20:45;;;;;;;93.63;62.50;;;3.90;99.90;;;;;;6033130;23;20242;-87
2022/01/05 09:30:17;;;;;;;;;;;;;;;;;;;;;
2022/01/05 09:49:40;;;;;;;94.47;65.53;;;4.30;99.90;;;;;;6118229;23;20198;-86
2022/01/05 10:26:43;;;;;;;105.50;80.03;;;4.80;99.90;;;;;;6095101;23;20611;-88
2022/01/05 10:49:32;;;;;;;76.78;21.50;;;5.30;99.90;;;;;;6098721;23;20200;-88
2022/01/05 10:52:27;;;;;;;74.57;15.13;;;5.30;99.90;;;;;;6098495;23;20193;-87
2022/01/05 10:58:51;;;;;;;78.45;22.88;;;5.10;99.90;;;;;;6124836;23;20137;-87
2022/01/05 11:16:12;;;;;;;96.55;57.45;;;5.10;99.90;;;;;;6123256;23;20202;-87
2022/01/05 11:18:39;;;;;;;89.90;46.47;;;5.30;99.90;;;;;;6095104;23;20207;-87
2022/01/05 11:21:08;;;;;;;91.60;48.95;;;5.30;99.90;;;;;;6098990;23;20154;-87
2022/01/05 11:23:35;;;;;;;81.28;26.48;;;5.40;99.90;;;;;;6098866;23;20240;-88
2022/01/05 11:26:48;;;;;;;78.95;22.02;;;5.40;99.90;;;;;;6099073;23;20155;-86
2022/01/05 11:29:15;;;;;;;85.25;33.13;;;5.40;99.90;;;;;;6125342;23;20146;-87
2022/01/05 11:32:34;;;;;;;76.40;16.58;;;5.40;99.90;;;;;;6097963;23;20154;-88
2022/01/05 11:42:56;;;;;;;78.75;23.55;;;5.40;99.90;;;;;;6034923;23;20627;-88
2022/01/05 11:52:32;;;;;;;86.60;28.33;;;5.30;99.90;;;;;;6095877;23;20151;-88
2022/01/05 11:55:39;;;;;;;80.43;17.58;;;5.30;99.90;;;;;;6067798;22;20604;-87
2022/01/05 11:58:37;;;;;;;78.25;24.17;;;5.40;99.90;;;;;;6011799;23;20492;-86
2022/01/05 12:01:21;;;;;;;89.85;40.33;;;5.40;99.90;;;;;;6119537;23;20142;-86
2022/01/05 12:04:28;;;;;;;76.75;17.02;;;5.60;99.90;;;;;;6122410;23;20191;-87
2022/01/05 12:07:16;;;;;;;74.13;16.30;;;5.60;99.90;;;;;;6099740;23;20154;-86
2022/01/05 12:10:47;;;;;;;80.93;33.28;;;5.60;99.90;;;;;;6099982;23;20173;-86
2022/01/05 12:55:39;;;;;;;;;;;;;;;;;;;;;
2022/01/05 12:59:03;;;;;;;;;;;;;;;;;;;;;
2022/01/05 13:40:02;;;;;;;81.45;28.33;;;5.80;99.90;;;;;;6118247;23;20212;-87
2022/01/05 13:48:38;;;;;;;89.82;28.75;;;6.10;99.90;;;;;;6105902;23;20201;-87
2022/01/05 14:03:03;;;;;;;89.03;41.38;;;6.30;99.90;;;;;;6149872;23;20619;-88
2022/01/05 14:18:30;;;;;;;;;;;;;;;;;;;;;
2022/01/05 14:25:04;;;;;;;79.40;28.90;;;6.00;99.90;;;;;;6133529;22;20210;-88
2022/01/05 14:27:55;;;;;;;93.22;42.80;;;5.90;99.90;;;;;;6251296;22;20171;-88
2022/01/05 14:56:54;;;;;;;;;;;;;;;;;;;;;
2022/01/05 17:10:59;;;;;;;;;;;;;;;;;;;;;
2022/01/05 17:23:42;;;;;;;181.70;167.13;;;5.20;99.90;;;;;;6036401;23;20187;-89
2022/01/05 17:26:59;;;;;;;160.98;147.48;;;5.20;99.90;;;;;;6070083;23;20183;-90
2022/01/05 17:36:52;;;;;;;;;;;;;;;;;;;;;
2022/01/05 17:39:59;;;;;;;149.98;136.65;;;5.00;99.90;;;;;;6120627;23;20663;-89
2022/01/05 17:42:33;;;;;;;141.85;128.85;;;5.00;99.90;;;;;;6025387;23;20199;-89
2022/01/05 17:45:16;;;;;;;156.95;143.10;;;5.10;99.90;;;;;;6093258;23;20576;-89
2022/01/05 17:48:52;;;;;;;163.43;148.88;;;5.10;99.90;;;;;;6097155;23;20516;-88
2022/01/05 17:51:52;;;;;;;165.15;151.63;;;5.10;99.90;;;;;;6003091;23;20153;-88
2022/01/05 18:18:02;;;;;;;122.65;110.55;;;5.10;99.90;;;;;;6122861;23;20228;-88
2022/01/05 18:31:50;;;;;;;101.95;90.38;;;5.10;99.90;;;;;;5893687;24;20467;-88
2022/01/05 18:34:57;;;;;;;107.32;93.15;;;5.10;99.90;;;;;;5966818;23;20181;-88
2022/01/05 18:37:32;;;;;;;101.55;88.00;;;5.10;99.90;;;;;;6010608;23;20164;-88
2022/01/05 18:40:36;;;;;;;125.50;113.45;;;5.10;99.90;;;;;;6033655;23;20529;-87
2022/01/05 18:43:54;;;;;;;;;;;;;;;;;;;;;
2022/01/05 18:50:17;;;;;;;105.80;94.65;;;5.10;99.90;;;;;;5985880;23;20180;-87
2022/01/05 18:53:50;;;;;;;;;;;;;;;;;;;;;
2022/01/05 18:57:00;;;;;;;123.15;111.43;;;5.10;99.90;;;;;;5866358;24;20236;-87
2022/01/05 18:59:57;;;;;;;115.32;103.82;;;5.20;99.90;;;;;;6010018;23;20192;-87
2022/01/05 19:02:39;;;;;;;;;;;;;;;;;;;;;
2022/01/05 19:05:29;;;;;;;178.82;164.10;;;5.20;99.90;;;;;;6082296;23;20274;-86
2022/01/05 19:08:52;;;;;;;272.65;254.63;;;5.20;99.90;;;;;;6093849;23;20140;-86
2022/01/05 19:59:06;;;;;;;141.98;128.90;;;5.20;99.90;;;;;;6118471;23;20651;-87
2022/01/05 20:02:15;;;;;;;;;;;;;;;;;;;;;
2022/01/05 20:05:36;;;;;;;170.77;156.45;;;5.20;99.90;;;;;;5992489;23;20267;-85
2022/01/05 20:12:37;;;;;;;131.27;119.50;;;5.20;99.90;;;;;;6172423;23;20160;-86
2022/01/05 20:54:13;;;;;;;115.90;104.05;;;5.20;99.90;;;;;;5925639;24;20174;-86
2022/01/05 20:57:31;;;;;;;;;;;;;;;;;;;;;
2022/01/05 21:00:34;;;;;;;;;;;;;;;;;;;;;
2022/01/05 21:09:59;;;;;;;127.78;115.47;;;5.30;99.90;;;;;;5977902;23;20162;-87
2022/01/05 21:13:08;;;;;;;117.88;106.10;;;5.30;99.90;;;;;;5949213;23;20184;-86
2022/01/05 21:19:32;;;;;;;;;;;;;;;;;;;;;
2022/01/05 21:33:36;;;;;;;;;;;;;;;;;;;;;
2022/01/05 21:36:23;;;;;;;121.43;109.90;;;5.30;99.90;;;;;;6009480;23;20535;-86
2022/01/05 21:42:50;;;;;;;112.95;101.50;;;5.40;99.90;;;;;;6014155;23;20674;-86
2022/01/05 21:49:33;;;;;;;106.20;94.75;;;5.30;99.90;;;;;;5984587;23;20197;-86
2022/01/05 21:52:26;;;;;;;122.57;110.90;;;5.40;99.90;;;;;;5973870;23;20166;-86
2022/01/05 21:59:48;;;;;;;144.43;131.43;;;5.40;99.90;;;;;;6005340;23;20220;-86
2022/01/05 22:03:01;;;;;;;;;;;;;;;;;;;;;
2022/01/05 22:05:50;;;;;;;120.68;108.63;;;5.40;99.90;;;;;;6006016;23;20752;-86
2022/01/05 22:12:18;;;;;;;102.07;90.68;;;5.40;99.90;;;;;;6034639;23;20168;-86
2022/01/05 22:18:28;;;;;;;123.78;112.07;;;5.40;99.90;;;;;;6099420;23;20150;-86
2022/01/05 22:20:37;;;;;;;114.97;103.60;;;5.40;99.90;;;;;;6107605;23;20154;-86
2022/01/05 22:23:34;;;;;;;107.15;96.20;;;5.30;99.90;;;;;;6102549;23;20207;-86
2022/01/05 22:29:40;;;;;;;;;;;;;;;;;;;;;
2022/01/05 22:32:51;;;;;;;;;;;;;;;;;;;;;
2022/01/05 22:35:30;;;;;;;102.80;91.40;;;5.30;99.90;;;;;;6124954;23;20254;-86
2022/01/05 22:38:27;;;;;;;103.65;92.00;;;5.30;99.90;;;;;;6095658;23;20150;-86
2022/01/05 22:41:23;;;;;;;;;;;;;;;;;;;;;
2022/01/05 22:44:25;;;;;;;;;;;;;;;;;;;;;
2022/01/05 22:47:22;;;;;;;115.18;103.70;;;5.20;99.90;;;;;;6118355;23;20229;-86
2022/01/05 22:50:15;;;;;;;;;;;;;;;;;;;;;
2022/01/05 22:53:36;;;;;;;144.80;131.75;;;5.10;99.90;;;;;;6123210;23;20656;-86
2022/01/05 22:56:54;;;;;;;100.18;77.18;;;5.10;99.90;;;;;;6063962;23;20221;-86
2022/01/05 23:00:02;;;;;;;100.55;89.65;;;5.10;99.90;;;;;;6071296;23;20150;-86
2022/01/05 23:03:09;;;;;;;;;;;;;;;;;;;;;
2022/01/05 23:06:26;;;;;;;107.68;95.10;;;5.00;99.90;;;;;;6022689;23;20263;-87
2022/01/05 23:09:39;;;;;;;109.25;97.03;;;5.00;99.90;;;;;;5975166;23;20150;-86
2022/01/05 23:12:52;;;;;;;102.25;77.70;;;4.90;99.90;;;;;;5995641;23;20153;-87
2022/01/05 23:18:11;;;;;;;103.78;87.75;;;4.90;99.90;;;;;;6152177;23;20173;-86
2022/01/05 23:24:25;;;;;;;102.05;85.88;;;4.90;99.90;;;;;;6127939;23;20182;-86
2022/01/05 23:27:14;;;;;;;112.50;101.05;;;4.90;99.90;;;;;;6129810;23;20233;-86
2022/01/05 23:29:48;;;;;;;124.25;112.25;;;4.90;99.90;;;;;;6154497;23;20146;-86
2022/01/05 23:33:00;;;;;;;;;;;;;;;;;;;;;
2022/01/05 23:35:47;;;;;;;104.97;93.80;;;4.90;99.90;;;;;;6107310;23;20293;-87
2022/01/05 23:38:36;;;;;;;111.20;99.38;;;4.90;99.90;;;;;;6099036;23;20549;-87
2022/01/05 23:41:26;;;;;;;104.50;90.82;;;4.90;99.90;;;;;;6055556;23;20174;-87
2022/01/05 23:44:25;;;;;;;123.05;110.60;;;4.90;99.90;;;;;;6094097;23;20178;-87
2022/01/05 23:47:47;;;;;;;;;;;;;;;;;;;;;
2022/01/05 23:50:29;;;;;;;107.75;90.55;;;4.90;99.90;;;;;;6113991;23;20480;-87
2022/01/05 23:53:11;;;;;;;113.47;101.55;;;4.90;99.90;;;;;;6097807;23;20139;-87
2022/01/05 23:55:44;;;;;;;109.03;97.22;;;5.00;99.90;;;;;;6097371;23;20175;-87
